sensor_id;sensor_type;location;lat;lon;timestamp;P1;durP1;ratioP1;P2;durP2;ratioP2
1350;SDS011;669;50.206;9.998;2024-02-15T00:01:42;10.37;;;8.97;;
1350;SDS011;669;50.206;9.998;2024-02-15T00:04:11;12.50;;;10.00;;
1350;SDS011;669;50.206;9.998;2024-02-15T00:06:39;10.13;;;8.97;;
1350;SDS011;669;50.206;9.998;2024-02-15T00:09:07;10.40;;;8.10;;
1350;SDS011;669;50.206;9.998;2024-02-15T00:11:35;8.20;;;7.17;;
1350;SDS011;669;50.206;9.998;2024-02-15T00:14:05;8.00;;;6.90;;
1350;SDS011;669;50.206;9.998;2024-02-15T00:16:34;7.87;;;7.07;;
1350;SDS011;669;50.206;9.998;2024-02-15T00:19:02;9.97;;;7.63;;
1350;SDS011;669;50.206;9.998;2024-02-15T00:21:32;11.30;;;7.93;;
1350;SDS011;669;50.206;9.998;2024-02-15T00:24:01;10.60;;;8.50;;
1350;SDS011;669;50.206;9.998;2024-02-15T00:26:29;11.23;;;8.30;;
1350;SDS011;669;50.206;9.998;2024-02-15T00:28:58;9.40;;;8.40;;
1350;SDS011;669;50.206;9.998;2024-02-15T00:31:27;9.23;;;7.87;;
1350;SDS011;669;50.206;9.998;2024-02-15T00:33:55;9.10;;;7.33;;
1350;SDS011;669;50.206;9.998;2024-02-15T00:36:23;7.50;;;6.47;;
1350;SDS011;669;50.206;9.998;2024-02-15T00:38:53;7.50;;;6.80;;
1350;SDS011;669;50.206;9.998;2024-02-15T00:41:21;8.90;;;7.80;;
1350;SDS011;669;50.206;9.998;2024-02-15T00:43:49;8.53;;;7.07;;
1350;SDS011;669;50.206;9.998;2024-02-15T00:46:17;7.53;;;6.80;;
1350;SDS011;669;50.206;9.998;2024-02-15T00:48:45;11.37;;;7.90;;
1350;SDS011;669;50.206;9.998;2024-02-15T00:51:14;7.87;;;6.97;;
1350;SDS011;669;50.206;9.998;2024-02-15T00:53:42;7.03;;;6.33;;
1350;SDS011;669;50.206;9.998;2024-02-15T00:56:11;8.03;;;7.33;;
1350;SDS011;669;50.206;9.998;2024-02-15T00:58:39;8.53;;;7.63;;
1350;SDS011;669;50.206;9.998;2024-02-15T01:01:07;8.17;;;7.20;;
1350;SDS011;669;50.206;9.998;2024-02-15T01:03:37;6.23;;;5.63;;
1350;SDS011;669;50.206;9.998;2024-02-15T01:06:05;5.90;;;5.30;;
1350;SDS011;669;50.206;9.998;2024-02-15T01:08:33;6.83;;;5.97;;
1350;SDS011;669;50.206;9.998;2024-02-15T01:11:03;5.57;;;5.03;;
1350;SDS011;669;50.206;9.998;2024-02-15T01:13:33;4.80;;;4.37;;
1350;SDS011;669;50.206;9.998;2024-02-15T01:16:01;5.67;;;5.17;;
1350;SDS011;669;50.206;9.998;2024-02-15T01:18:30;5.00;;;4.40;;
1350;SDS011;669;50.206;9.998;2024-02-15T01:20:58;5.60;;;5.10;;
1350;SDS011;669;50.206;9.998;2024-02-15T01:23:26;4.47;;;3.87;;
1350;SDS011;669;50.206;9.998;2024-02-15T01:25:55;4.70;;;4.30;;
1350;SDS011;669;50.206;9.998;2024-02-15T01:28:24;6.97;;;5.20;;
1350;SDS011;669;50.206;9.998;2024-02-15T01:30:53;6.27;;;5.67;;
1350;SDS011;669;50.206;9.998;2024-02-15T01:33:21;6.60;;;5.27;;
1350;SDS011;669;50.206;9.998;2024-02-15T01:35:50;5.70;;;5.13;;
1350;SDS011;669;50.206;9.998;2024-02-15T01:38:18;5.23;;;4.60;;
1350;SDS011;669;50.206;9.998;2024-02-15T01:40:46;5.20;;;4.80;;
1350;SDS011;669;50.206;9.998;2024-02-15T01:43:14;6.20;;;5.30;;
1350;SDS011;669;50.206;9.998;2024-02-15T01:45:42;6.80;;;5.00;;
1350;SDS011;669;50.206;9.998;2024-02-15T01:48:14;5.50;;;4.80;;
1350;SDS011;669;50.206;9.998;2024-02-15T01:50:43;6.73;;;5.90;;
1350;SDS011;669;50.206;9.998;2024-02-15T01:53:12;5.63;;;5.03;;
1350;SDS011;669;50.206;9.998;2024-02-15T01:55:40;5.20;;;4.40;;
1350;SDS011;669;50.206;9.998;2024-02-15T01:58:08;4.30;;;3.90;;
1350;SDS011;669;50.206;9.998;2024-02-15T02:00:36;4.60;;;4.20;;
1350;SDS011;669;50.206;9.998;2024-02-15T02:03:06;4.37;;;3.67;;
1350;SDS011;669;50.206;9.998;2024-02-15T02:05:37;3.53;;;3.23;;
1350;SDS011;669;50.206;9.998;2024-02-15T02:08:06;4.40;;;3.53;;
1350;SDS011;669;50.206;9.998;2024-02-15T02:10:36;3.70;;;3.40;;
1350;SDS011;669;50.206;9.998;2024-02-15T02:13:04;4.53;;;4.13;;
1350;SDS011;669;50.206;9.998;2024-02-15T02:15:32;4.23;;;3.60;;
1350;SDS011;669;50.206;9.998;2024-02-15T02:18:01;7.00;;;4.27;;
1350;SDS011;669;50.206;9.998;2024-02-15T02:20:29;2.73;;;2.53;;
1350;SDS011;669;50.206;9.998;2024-02-15T02:23:00;4.23;;;3.83;;
1350;SDS011;669;50.206;9.998;2024-02-15T02:25:35;3.83;;;3.53;;
1350;SDS011;669;50.206;9.998;2024-02-15T02:28:04;3.77;;;3.47;;
1350;SDS011;669;50.206;9.998;2024-02-15T02:30:33;3.63;;;3.33;;
1350;SDS011;669;50.206;9.998;2024-02-15T02:33:01;3.53;;;3.23;;
1350;SDS011;669;50.206;9.998;2024-02-15T02:35:32;5.40;;;4.20;;
1350;SDS011;669;50.206;9.998;2024-02-15T02:38:01;9.10;;;6.37;;
1350;SDS011;669;50.206;9.998;2024-02-15T02:40:30;7.37;;;6.20;;
1350;SDS011;669;50.206;9.998;2024-02-15T02:42:59;7.07;;;5.77;;
1350;SDS011;669;50.206;9.998;2024-02-15T02:45:27;6.50;;;5.53;;
1350;SDS011;669;50.206;9.998;2024-02-15T02:47:55;6.60;;;5.97;;
1350;SDS011;669;50.206;9.998;2024-02-15T02:50:23;7.40;;;6.23;;
1350;SDS011;669;50.206;9.998;2024-02-15T02:52:51;5.67;;;5.03;;
1350;SDS011;669;50.206;9.998;2024-02-15T02:55:20;7.10;;;6.17;;
1350;SDS011;669;50.206;9.998;2024-02-15T02:57:48;9.97;;;7.50;;
1350;SDS011;669;50.206;9.998;2024-02-15T03:00:17;8.63;;;6.80;;
1350;SDS011;669;50.206;9.998;2024-02-15T03:02:46;9.37;;;8.43;;
1350;SDS011;669;50.206;9.998;2024-02-15T03:05:14;10.70;;;7.13;;
1350;SDS011;669;50.206;9.998;2024-02-15T03:07:43;10.60;;;7.97;;
1350;SDS011;669;50.206;9.998;2024-02-15T03:10:11;14.40;;;8.43;;
1350;SDS011;669;50.206;9.998;2024-02-15T03:12:41;14.27;;;8.00;;
1350;SDS011;669;50.206;9.998;2024-02-15T03:15:14;7.43;;;6.70;;
1350;SDS011;669;50.206;9.998;2024-02-15T03:17:46;10.57;;;8.13;;
1350;SDS011;669;50.206;9.998;2024-02-15T03:20:15;8.77;;;7.40;;
1350;SDS011;669;50.206;9.998;2024-02-15T03:22:52;11.80;;;6.97;;
1350;SDS011;669;50.206;9.998;2024-02-15T03:25:21;11.70;;;8.60;;
1350;SDS011;669;50.206;9.998;2024-02-15T03:27:51;10.43;;;7.53;;
1350;SDS011;669;50.206;9.998;2024-02-15T03:30:19;8.77;;;6.87;;
1350;SDS011;669;50.206;9.998;2024-02-15T03:32:49;9.97;;;7.13;;
1350;SDS011;669;50.206;9.998;2024-02-15T03:35:19;9.23;;;7.20;;
1350;SDS011;669;50.206;9.998;2024-02-15T03:37:49;6.90;;;6.20;;
1350;SDS011;669;50.206;9.998;2024-02-15T03:40:18;9.33;;;6.80;;
1350;SDS011;669;50.206;9.998;2024-02-15T03:42:47;13.33;;;6.33;;
1350;SDS011;669;50.206;9.998;2024-02-15T03:45:16;7.03;;;6.33;;
1350;SDS011;669;50.206;9.998;2024-02-15T03:47:45;10.70;;;7.57;;
1350;SDS011;669;50.206;9.998;2024-02-15T03:50:14;9.90;;;7.47;;
1350;SDS011;669;50.206;9.998;2024-02-15T03:52:42;8.07;;;6.20;;
1350;SDS011;669;50.206;9.998;2024-02-15T03:55:11;8.97;;;6.07;;
1350;SDS011;669;50.206;9.998;2024-02-15T03:57:39;8.63;;;6.07;;
1350;SDS011;669;50.206;9.998;2024-02-15T04:00:10;5.83;;;5.10;;
1350;SDS011;669;50.206;9.998;2024-02-15T04:02:42;5.70;;;5.07;;
1350;SDS011;669;50.206;9.998;2024-02-15T04:05:10;5.30;;;4.80;;
1350;SDS011;669;50.206;9.998;2024-02-15T04:07:40;5.83;;;5.23;;
1350;SDS011;669;50.206;9.998;2024-02-15T04:10:10;4.80;;;4.40;;
1350;SDS011;669;50.206;9.998;2024-02-15T04:12:38;6.13;;;5.53;;
1350;SDS011;669;50.206;9.998;2024-02-15T04:15:08;6.80;;;5.27;;
1350;SDS011;669;50.206;9.998;2024-02-15T04:17:40;7.27;;;4.77;;
1350;SDS011;669;50.206;9.998;2024-02-15T04:20:10;5.17;;;4.67;;
1350;SDS011;669;50.206;9.998;2024-02-15T04:22:42;9.70;;;6.17;;
1350;SDS011;669;50.206;9.998;2024-02-15T04:25:10;9.40;;;6.37;;
1350;SDS011;669;50.206;9.998;2024-02-15T04:27:44;8.20;;;6.00;;
1350;SDS011;669;50.206;9.998;2024-02-15T04:30:13;11.03;;;8.10;;
1350;SDS011;669;50.206;9.998;2024-02-15T04:32:42;9.30;;;6.40;;
1350;SDS011;669;50.206;9.998;2024-02-15T04:35:11;10.67;;;5.50;;
1350;SDS011;669;50.206;9.998;2024-02-15T04:37:42;8.53;;;5.90;;
1350;SDS011;669;50.206;9.998;2024-02-15T04:40:10;6.27;;;5.77;;
1350;SDS011;669;50.206;9.998;2024-02-15T04:42:40;8.00;;;6.70;;
1350;SDS011;669;50.206;9.998;2024-02-15T04:45:10;7.50;;;5.60;;
1350;SDS011;669;50.206;9.998;2024-02-15T04:47:40;6.83;;;5.20;;
1350;SDS011;669;50.206;9.998;2024-02-15T04:50:09;5.13;;;4.53;;
1350;SDS011;669;50.206;9.998;2024-02-15T04:52:37;4.80;;;4.27;;
1350;SDS011;669;50.206;9.998;2024-02-15T04:55:07;6.20;;;4.80;;
1350;SDS011;669;50.206;9.998;2024-02-15T04:57:35;7.40;;;4.93;;
1350;SDS011;669;50.206;9.998;2024-02-15T05:00:04;6.00;;;5.40;;
1350;SDS011;669;50.206;9.998;2024-02-15T05:02:36;11.23;;;6.70;;
1350;SDS011;669;50.206;9.998;2024-02-15T05:05:07;5.97;;;5.43;;
1350;SDS011;669;50.206;9.998;2024-02-15T05:07:35;4.90;;;4.40;;
1350;SDS011;669;50.206;9.998;2024-02-15T05:10:08;5.33;;;4.83;;
1350;SDS011;669;50.206;9.998;2024-02-15T05:12:36;6.50;;;4.70;;
1350;SDS011;669;50.206;9.998;2024-02-15T05:15:06;9.30;;;5.40;;
1350;SDS011;669;50.206;9.998;2024-02-15T05:17:38;6.37;;;5.40;;
1350;SDS011;669;50.206;9.998;2024-02-15T05:20:09;7.37;;;4.60;;
1350;SDS011;669;50.206;9.998;2024-02-15T05:22:39;4.63;;;4.17;;
1350;SDS011;669;50.206;9.998;2024-02-15T05:25:16;5.17;;;4.50;;
1350;SDS011;669;50.206;9.998;2024-02-15T05:27:50;4.27;;;3.87;;
1350;SDS011;669;50.206;9.998;2024-02-15T05:30:20;5.00;;;4.60;;
1350;SDS011;669;50.206;9.998;2024-02-15T05:32:49;4.10;;;3.77;;
1350;SDS011;669;50.206;9.998;2024-02-15T05:35:19;3.77;;;3.47;;
1350;SDS011;669;50.206;9.998;2024-02-15T05:37:47;3.90;;;3.60;;
1350;SDS011;669;50.206;9.998;2024-02-15T05:40:16;5.57;;;4.33;;
1350;SDS011;669;50.206;9.998;2024-02-15T05:42:45;4.33;;;3.93;;
1350;SDS011;669;50.206;9.998;2024-02-15T05:45:29;4.67;;;4.27;;
1350;SDS011;669;50.206;9.998;2024-02-15T05:48:00;4.77;;;4.33;;
1350;SDS011;669;50.206;9.998;2024-02-15T05:50:32;5.57;;;4.90;;
1350;SDS011;669;50.206;9.998;2024-02-15T05:53:00;5.13;;;4.57;;
1350;SDS011;669;50.206;9.998;2024-02-15T05:55:31;4.20;;;3.80;;
1350;SDS011;669;50.206;9.998;2024-02-15T05:58:01;6.13;;;4.80;;
1350;SDS011;669;50.206;9.998;2024-02-15T06:00:30;9.60;;;7.70;;
1350;SDS011;669;50.206;9.998;2024-02-15T06:03:00;9.60;;;7.33;;
1350;SDS011;669;50.206;9.998;2024-02-15T06:05:29;8.37;;;7.10;;
1350;SDS011;669;50.206;9.998;2024-02-15T06:07:57;7.83;;;6.50;;
1350;SDS011;669;50.206;9.998;2024-02-15T06:10:26;7.90;;;7.10;;
1350;SDS011;669;50.206;9.998;2024-02-15T06:12:57;8.87;;;8.07;;
1350;SDS011;669;50.206;9.998;2024-02-15T06:15:25;9.77;;;6.67;;
1350;SDS011;669;50.206;9.998;2024-02-15T06:17:53;6.80;;;6.10;;
1350;SDS011;669;50.206;9.998;2024-02-15T06:20:21;6.73;;;6.03;;
1350;SDS011;669;50.206;9.998;2024-02-15T06:22:50;7.13;;;6.43;;
1350;SDS011;669;50.206;9.998;2024-02-15T06:25:19;6.97;;;6.13;;
1350;SDS011;669;50.206;9.998;2024-02-15T06:27:48;6.60;;;6.00;;
1350;SDS011;669;50.206;9.998;2024-02-15T06:30:25;5.87;;;5.27;;
1350;SDS011;669;50.206;9.998;2024-02-15T06:33:11;6.63;;;5.90;;
1350;SDS011;669;50.206;9.998;2024-02-15T06:35:56;5.67;;;5.10;;
1350;SDS011;669;50.206;9.998;2024-02-15T06:38:42;6.13;;;5.53;;
1350;SDS011;669;50.206;9.998;2024-02-15T06:41:27;6.20;;;5.53;;
1350;SDS011;669;50.206;9.998;2024-02-15T06:43:55;8.03;;;6.13;;
1350;SDS011;669;50.206;9.998;2024-02-15T06:46:24;9.20;;;5.83;;
1350;SDS011;669;50.206;9.998;2024-02-15T06:48:52;7.90;;;6.10;;
1350;SDS011;669;50.206;9.998;2024-02-15T06:51:21;7.90;;;6.40;;
1350;SDS011;669;50.206;9.998;2024-02-15T06:53:51;8.57;;;7.67;;
1350;SDS011;669;50.206;9.998;2024-02-15T06:56:22;15.87;;;12.70;;
1350;SDS011;669;50.206;9.998;2024-02-15T06:58:50;15.63;;;11.00;;
1350;SDS011;669;50.206;9.998;2024-02-15T07:01:20;17.93;;;13.67;;
1350;SDS011;669;50.206;9.998;2024-02-15T07:03:49;16.70;;;11.60;;
1350;SDS011;669;50.206;9.998;2024-02-15T07:06:17;21.73;;;13.53;;
1350;SDS011;669;50.206;9.998;2024-02-15T07:08:45;23.13;;;15.33;;
1350;SDS011;669;50.206;9.998;2024-02-15T07:11:14;16.83;;;12.97;;
1350;SDS011;669;50.206;9.998;2024-02-15T07:13:42;22.63;;;16.27;;
1350;SDS011;669;50.206;9.998;2024-02-15T07:16:10;32.50;;;18.80;;
1350;SDS011;669;50.206;9.998;2024-02-15T07:18:39;30.43;;;18.10;;
1350;SDS011;669;50.206;9.998;2024-02-15T07:21:09;19.43;;;14.20;;
1350;SDS011;669;50.206;9.998;2024-02-15T07:23:40;18.17;;;13.37;;
1350;SDS011;669;50.206;9.998;2024-02-15T07:26:08;14.47;;;10.90;;
1350;SDS011;669;50.206;9.998;2024-02-15T07:28:38;11.93;;;8.90;;
1350;SDS011;669;50.206;9.998;2024-02-15T07:31:07;11.00;;;8.73;;
1350;SDS011;669;50.206;9.998;2024-02-15T07:33:35;10.00;;;8.60;;
1350;SDS011;669;50.206;9.998;2024-02-15T07:36:04;10.17;;;7.97;;
1350;SDS011;669;50.206;9.998;2024-02-15T07:38:33;11.80;;;9.20;;
1350;SDS011;669;50.206;9.998;2024-02-15T07:41:01;10.07;;;8.37;;
1350;SDS011;669;50.206;9.998;2024-02-15T07:43:30;10.03;;;8.50;;
1350;SDS011;669;50.206;9.998;2024-02-15T07:45:59;7.73;;;6.93;;
1350;SDS011;669;50.206;9.998;2024-02-15T07:48:27;8.20;;;7.40;;
1350;SDS011;669;50.206;9.998;2024-02-15T07:50:55;7.13;;;6.50;;
1350;SDS011;669;50.206;9.998;2024-02-15T07:53:24;7.00;;;6.30;;
1350;SDS011;669;50.206;9.998;2024-02-15T07:55:54;7.80;;;6.70;;
1350;SDS011;669;50.206;9.998;2024-02-15T07:58:21;6.80;;;6.10;;
1350;SDS011;669;50.206;9.998;2024-02-15T08:00:49;6.73;;;6.03;;
1350;SDS011;669;50.206;9.998;2024-02-15T08:03:17;7.97;;;5.83;;
1350;SDS011;669;50.206;9.998;2024-02-15T08:05:45;7.60;;;6.40;;
1350;SDS011;669;50.206;9.998;2024-02-15T08:08:13;7.17;;;6.43;;
1350;SDS011;669;50.206;9.998;2024-02-15T08:10:42;7.20;;;6.40;;
1350;SDS011;669;50.206;9.998;2024-02-15T08:13:12;9.13;;;6.73;;
1350;SDS011;669;50.206;9.998;2024-02-15T08:15:42;8.37;;;7.17;;
1350;SDS011;669;50.206;9.998;2024-02-15T08:18:11;12.73;;;10.87;;
1350;SDS011;669;50.206;9.998;2024-02-15T08:20:39;14.90;;;10.67;;
1350;SDS011;669;50.206;9.998;2024-02-15T08:23:07;10.90;;;9.83;;
1350;SDS011;669;50.206;9.998;2024-02-15T08:25:38;10.30;;;9.10;;
1350;SDS011;669;50.206;9.998;2024-02-15T08:28:07;10.83;;;8.10;;
1350;SDS011;669;50.206;9.998;2024-02-15T08:30:36;8.43;;;7.30;;
1350;SDS011;669;50.206;9.998;2024-02-15T08:33:04;7.77;;;6.73;;
1350;SDS011;669;50.206;9.998;2024-02-15T08:35:32;7.23;;;5.27;;
1350;SDS011;669;50.206;9.998;2024-02-15T08:38:01;5.63;;;5.10;;
1350;SDS011;669;50.206;9.998;2024-02-15T08:40:31;5.50;;;5.00;;
1350;SDS011;669;50.206;9.998;2024-02-15T08:42:59;5.50;;;5.00;;
1350;SDS011;669;50.206;9.998;2024-02-15T08:45:27;6.60;;;4.27;;
1350;SDS011;669;50.206;9.998;2024-02-15T08:47:57;10.67;;;6.67;;
1350;SDS011;669;50.206;9.998;2024-02-15T08:50:25;7.57;;;4.90;;
1350;SDS011;669;50.206;9.998;2024-02-15T08:52:54;8.97;;;4.80;;
1350;SDS011;669;50.206;9.998;2024-02-15T08:55:22;8.50;;;5.37;;
1350;SDS011;669;50.206;9.998;2024-02-15T08:57:53;8.30;;;5.87;;
1350;SDS011;669;50.206;9.998;2024-02-15T09:00:21;6.20;;;5.57;;
1350;SDS011;669;50.206;9.998;2024-02-15T09:02:53;6.30;;;5.00;;
1350;SDS011;669;50.206;9.998;2024-02-15T09:05:23;5.93;;;5.00;;
1350;SDS011;669;50.206;9.998;2024-02-15T09:07:52;6.53;;;4.57;;
1350;SDS011;669;50.206;9.998;2024-02-15T09:10:20;9.37;;;6.77;;
1350;SDS011;669;50.206;9.998;2024-02-15T09:12:49;5.30;;;4.67;;
1350;SDS011;669;50.206;9.998;2024-02-15T09:15:17;5.90;;;4.60;;
1350;SDS011;669;50.206;9.998;2024-02-15T09:17:45;7.87;;;6.07;;
1350;SDS011;669;50.206;9.998;2024-02-15T09:20:14;10.30;;;6.10;;
1350;SDS011;669;50.206;9.998;2024-02-15T09:22:48;6.60;;;5.10;;
1350;SDS011;669;50.206;9.998;2024-02-15T09:25:17;6.83;;;5.33;;
1350;SDS011;669;50.206;9.998;2024-02-15T09:27:46;8.33;;;5.70;;
1350;SDS011;669;50.206;9.998;2024-02-15T09:30:14;6.77;;;5.60;;
1350;SDS011;669;50.206;9.998;2024-02-15T09:32:43;11.30;;;6.00;;
1350;SDS011;669;50.206;9.998;2024-02-15T09:35:12;6.23;;;5.63;;
1350;SDS011;669;50.206;9.998;2024-02-15T09:37:44;7.27;;;6.30;;
1350;SDS011;669;50.206;9.998;2024-02-15T09:40:16;7.10;;;6.10;;
1350;SDS011;669;50.206;9.998;2024-02-15T09:42:46;5.90;;;5.30;;
1350;SDS011;669;50.206;9.998;2024-02-15T09:45:16;5.60;;;5.10;;
1350;SDS011;669;50.206;9.998;2024-02-15T09:47:44;7.17;;;5.23;;
1350;SDS011;669;50.206;9.998;2024-02-15T09:50:15;7.60;;;5.10;;
1350;SDS011;669;50.206;9.998;2024-02-15T09:52:44;8.40;;;5.00;;
1350;SDS011;669;50.206;9.998;2024-02-15T09:55:18;5.50;;;4.60;;
1350;SDS011;669;50.206;9.998;2024-02-15T09:57:50;6.40;;;5.20;;
1350;SDS011;669;50.206;9.998;2024-02-15T10:00:18;6.87;;;5.50;;
1350;SDS011;669;50.206;9.998;2024-02-15T10:02:47;9.90;;;5.03;;
1350;SDS011;669;50.206;9.998;2024-02-15T10:05:19;5.17;;;4.67;;
1350;SDS011;669;50.206;9.998;2024-02-15T10:07:49;7.27;;;5.60;;
1350;SDS011;669;50.206;9.998;2024-02-15T10:10:19;5.77;;;4.83;;
1350;SDS011;669;50.206;9.998;2024-02-15T10:12:48;4.60;;;4.23;;
1350;SDS011;669;50.206;9.998;2024-02-15T10:15:27;6.63;;;5.60;;
1350;SDS011;669;50.206;9.998;2024-02-15T10:17:59;5.77;;;5.20;;
1350;SDS011;669;50.206;9.998;2024-02-15T10:20:28;6.87;;;5.20;;
1350;SDS011;669;50.206;9.998;2024-02-15T10:23:09;6.70;;;4.30;;
1350;SDS011;669;50.206;9.998;2024-02-15T10:25:40;7.50;;;4.67;;
1350;SDS011;669;50.206;9.998;2024-02-15T10:28:08;5.97;;;5.00;;
1350;SDS011;669;50.206;9.998;2024-02-15T10:30:37;4.57;;;4.13;;
1350;SDS011;669;50.206;9.998;2024-02-15T10:33:06;6.07;;;5.47;;
1350;SDS011;669;50.206;9.998;2024-02-15T10:35:35;5.10;;;4.60;;
1350;SDS011;669;50.206;9.998;2024-02-15T10:38:07;4.10;;;3.70;;
1350;SDS011;669;50.206;9.998;2024-02-15T10:40:36;3.57;;;3.27;;
1350;SDS011;669;50.206;9.998;2024-02-15T10:43:08;4.30;;;4.00;;
1350;SDS011;669;50.206;9.998;2024-02-15T10:45:39;3.90;;;3.60;;
1350;SDS011;669;50.206;9.998;2024-02-15T10:48:08;7.13;;;4.47;;
1350;SDS011;669;50.206;9.998;2024-02-15T10:50:39;2.80;;;2.60;;
1350;SDS011;669;50.206;9.998;2024-02-15T10:53:10;2.63;;;2.43;;
1350;SDS011;669;50.206;9.998;2024-02-15T10:55:52;7.03;;;3.47;;
1350;SDS011;669;50.206;9.998;2024-02-15T10:58:29;2.87;;;2.67;;
1350;SDS011;669;50.206;9.998;2024-02-15T11:01:01;5.03;;;3.57;;
1350;SDS011;669;50.206;9.998;2024-02-15T11:03:35;3.70;;;3.40;;
1350;SDS011;669;50.206;9.998;2024-02-15T11:06:07;4.47;;;4.03;;
1350;SDS011;669;50.206;9.998;2024-02-15T11:08:37;4.33;;;3.10;;
1350;SDS011;669;50.206;9.998;2024-02-15T11:11:07;6.40;;;4.30;;
1350;SDS011;669;50.206;9.998;2024-02-15T11:13:38;9.43;;;4.10;;
1350;SDS011;669;50.206;9.998;2024-02-15T11:16:06;4.00;;;3.10;;
1350;SDS011;669;50.206;9.998;2024-02-15T11:18:43;5.47;;;3.13;;
1350;SDS011;669;50.206;9.998;2024-02-15T11:21:15;3.93;;;3.43;;
1350;SDS011;669;50.206;9.998;2024-02-15T11:23:44;3.90;;;3.20;;
1350;SDS011;669;50.206;9.998;2024-02-15T11:32:34;9.67;;;3.10;;
1350;SDS011;669;50.206;9.998;2024-02-15T11:35:06;2.57;;;2.30;;
1350;SDS011;669;50.206;9.998;2024-02-15T11:37:55;5.20;;;2.97;;
1350;SDS011;669;50.206;9.998;2024-02-15T11:40:28;4.13;;;3.80;;
1350;SDS011;669;50.206;9.998;2024-02-15T11:46:16;6.37;;;4.07;;
1350;SDS011;669;50.206;9.998;2024-02-15T11:48:45;6.00;;;4.13;;
1350;SDS011;669;50.206;9.998;2024-02-15T11:51:24;5.00;;;4.50;;
1350;SDS011;669;50.206;9.998;2024-02-15T11:54:02;7.20;;;4.90;;
1350;SDS011;669;50.206;9.998;2024-02-15T11:59:19;6.90;;;5.30;;
1350;SDS011;669;50.206;9.998;2024-02-15T12:01:58;7.43;;;6.43;;
1350;SDS011;669;50.206;9.998;2024-02-15T12:04:44;7.57;;;5.50;;
1350;SDS011;669;50.206;9.998;2024-02-15T12:07:30;4.70;;;4.10;;
1350;SDS011;669;50.206;9.998;2024-02-15T12:10:16;4.90;;;3.67;;
1350;SDS011;669;50.206;9.998;2024-02-15T12:13:02;4.07;;;3.57;;
1350;SDS011;669;50.206;9.998;2024-02-15T12:15:58;4.33;;;3.33;;
1350;SDS011;669;50.206;9.998;2024-02-15T12:18:45;4.77;;;3.70;;
1350;SDS011;669;50.206;9.998;2024-02-15T12:21:19;6.17;;;3.33;;
1350;SDS011;669;50.206;9.998;2024-02-15T12:23:51;3.50;;;3.07;;
1350;SDS011;669;50.206;9.998;2024-02-15T12:26:20;3.80;;;2.80;;
1350;SDS011;669;50.206;9.998;2024-02-15T12:28:50;4.73;;;2.80;;
1350;SDS011;669;50.206;9.998;2024-02-15T12:31:22;5.63;;;3.67;;
1350;SDS011;669;50.206;9.998;2024-02-15T12:33:59;3.43;;;2.67;;
1350;SDS011;669;50.206;9.998;2024-02-15T12:36:33;5.50;;;3.53;;
1350;SDS011;669;50.206;9.998;2024-02-15T12:39:03;3.07;;;2.77;;
1350;SDS011;669;50.206;9.998;2024-02-15T12:41:38;2.97;;;2.67;;
1350;SDS011;669;50.206;9.998;2024-02-15T12:44:07;2.37;;;2.17;;
1350;SDS011;669;50.206;9.998;2024-02-15T12:46:38;3.53;;;2.00;;
1350;SDS011;669;50.206;9.998;2024-02-15T12:49:10;2.47;;;2.27;;
1350;SDS011;669;50.206;9.998;2024-02-15T12:52:32;3.87;;;2.53;;
1350;SDS011;669;50.206;9.998;2024-02-15T12:55:07;7.33;;;2.97;;
1350;SDS011;669;50.206;9.998;2024-02-15T12:57:37;3.57;;;3.23;;
1350;SDS011;669;50.206;9.998;2024-02-15T13:00:07;4.60;;;3.00;;
1350;SDS011;669;50.206;9.998;2024-02-15T13:02:46;2.73;;;2.53;;
1350;SDS011;669;50.206;9.998;2024-02-15T13:05:15;6.80;;;3.70;;
1350;SDS011;669;50.206;9.998;2024-02-15T13:07:46;4.77;;;3.03;;
1350;SDS011;669;50.206;9.998;2024-02-15T13:10:14;6.67;;;2.73;;
1350;SDS011;669;50.206;9.998;2024-02-15T13:12:42;4.00;;;2.97;;
1350;SDS011;669;50.206;9.998;2024-02-15T13:15:11;3.50;;;2.90;;
1350;SDS011;669;50.206;9.998;2024-02-15T13:17:43;3.00;;;2.50;;
1350;SDS011;669;50.206;9.998;2024-02-15T13:20:13;3.80;;;2.50;;
1350;SDS011;669;50.206;9.998;2024-02-15T13:22:43;6.03;;;2.40;;
1350;SDS011;669;50.206;9.998;2024-02-15T13:25:13;4.97;;;3.00;;
1350;SDS011;669;50.206;9.998;2024-02-15T13:27:43;3.50;;;2.97;;
1350;SDS011;669;50.206;9.998;2024-02-15T13:30:12;3.60;;;2.90;;
1350;SDS011;669;50.206;9.998;2024-02-15T13:32:41;2.90;;;2.20;;
1350;SDS011;669;50.206;9.998;2024-02-15T13:35:09;3.10;;;2.27;;
1350;SDS011;669;50.206;9.998;2024-02-15T13:37:42;3.73;;;2.87;;
1350;SDS011;669;50.206;9.998;2024-02-15T13:40:11;2.70;;;2.50;;
1350;SDS011;669;50.206;9.998;2024-02-15T13:42:42;4.20;;;3.07;;
1350;SDS011;669;50.206;9.998;2024-02-15T13:45:15;3.27;;;2.90;;
1350;SDS011;669;50.206;9.998;2024-02-15T13:47:44;3.20;;;2.50;;
1350;SDS011;669;50.206;9.998;2024-02-15T13:50:13;4.60;;;2.30;;
1350;SDS011;669;50.206;9.998;2024-02-15T13:52:43;4.73;;;2.77;;
1350;SDS011;669;50.206;9.998;2024-02-15T13:55:12;5.00;;;2.40;;
1350;SDS011;669;50.206;9.998;2024-02-15T13:57:41;3.80;;;2.03;;
1350;SDS011;669;50.206;9.998;2024-02-15T14:00:10;2.90;;;2.40;;
1350;SDS011;669;50.206;9.998;2024-02-15T14:02:49;4.67;;;2.53;;
1350;SDS011;669;50.206;9.998;2024-02-15T14:05:17;2.83;;;2.10;;
1350;SDS011;669;50.206;9.998;2024-02-15T14:07:48;2.60;;;2.40;;
1350;SDS011;669;50.206;9.998;2024-02-15T14:10:18;2.80;;;2.50;;
1350;SDS011;669;50.206;9.998;2024-02-15T14:12:47;5.50;;;2.97;;
1350;SDS011;669;50.206;9.998;2024-02-15T14:15:15;3.30;;;2.27;;
1350;SDS011;669;50.206;9.998;2024-02-15T14:17:44;3.50;;;2.03;;
1350;SDS011;669;50.206;9.998;2024-02-15T14:20:13;2.77;;;2.50;;
1350;SDS011;669;50.206;9.998;2024-02-15T14:22:41;3.47;;;2.73;;
1350;SDS011;669;50.206;9.998;2024-02-15T14:25:13;11.27;;;2.73;;
1350;SDS011;669;50.206;9.998;2024-02-15T14:27:40;2.40;;;2.10;;
1350;SDS011;669;50.206;9.998;2024-02-15T14:30:09;3.23;;;2.17;;
1350;SDS011;669;50.206;9.998;2024-02-15T14:32:56;2.40;;;2.20;;
1350;SDS011;669;50.206;9.998;2024-02-15T14:35:31;2.97;;;2.47;;
1350;SDS011;669;50.206;9.998;2024-02-15T14:38:02;8.60;;;3.10;;
1350;SDS011;669;50.206;9.998;2024-02-15T14:40:34;5.63;;;2.30;;
1350;SDS011;669;50.206;9.998;2024-02-15T14:43:06;2.67;;;2.00;;
1350;SDS011;669;50.206;9.998;2024-02-15T14:45:35;2.87;;;2.33;;
1350;SDS011;669;50.206;9.998;2024-02-15T14:48:04;3.40;;;2.90;;
1350;SDS011;669;50.206;9.998;2024-02-15T14:50:34;5.77;;;3.13;;
1350;SDS011;669;50.206;9.998;2024-02-15T14:53:02;7.80;;;2.50;;
1350;SDS011;669;50.206;9.998;2024-02-15T14:55:30;2.67;;;2.00;;
1350;SDS011;669;50.206;9.998;2024-02-15T14:58:01;5.90;;;2.80;;
1350;SDS011;669;50.206;9.998;2024-02-15T15:00:30;3.50;;;2.50;;
1350;SDS011;669;50.206;9.998;2024-02-15T15:03:01;7.60;;;2.67;;
1350;SDS011;669;50.206;9.998;2024-02-15T15:05:29;3.23;;;2.23;;
1350;SDS011;669;50.206;9.998;2024-02-15T15:08:15;5.33;;;2.27;;
1350;SDS011;669;50.206;9.998;2024-02-15T15:11:01;3.67;;;2.43;;
1350;SDS011;669;50.206;9.998;2024-02-15T15:13:48;2.37;;;2.27;;
1350;SDS011;669;50.206;9.998;2024-02-15T15:16:16;4.43;;;1.77;;
1350;SDS011;669;50.206;9.998;2024-02-15T15:18:47;4.00;;;2.57;;
1350;SDS011;669;50.206;9.998;2024-02-15T15:21:15;2.90;;;2.17;;
1350;SDS011;669;50.206;9.998;2024-02-15T15:23:43;3.43;;;2.07;;
1350;SDS011;669;50.206;9.998;2024-02-15T15:26:17;3.83;;;2.03;;
1350;SDS011;669;50.206;9.998;2024-02-15T15:28:47;7.50;;;2.50;;
1350;SDS011;669;50.206;9.998;2024-02-15T15:31:16;8.07;;;2.97;;
1350;SDS011;669;50.206;9.998;2024-02-15T15:33:46;2.83;;;2.30;;
1350;SDS011;669;50.206;9.998;2024-02-15T15:36:15;8.97;;;2.63;;
1350;SDS011;669;50.206;9.998;2024-02-15T15:38:46;3.07;;;1.90;;
1350;SDS011;669;50.206;9.998;2024-02-15T15:41:14;5.63;;;2.13;;
1350;SDS011;669;50.206;9.998;2024-02-15T15:43:43;1.63;;;1.53;;
1350;SDS011;669;50.206;9.998;2024-02-15T15:46:14;1.80;;;1.70;;
1350;SDS011;669;50.206;9.998;2024-02-15T15:48:42;1.77;;;1.67;;
1350;SDS011;669;50.206;9.998;2024-02-15T15:51:11;3.03;;;2.27;;
1350;SDS011;669;50.206;9.998;2024-02-15T15:53:41;1.73;;;1.33;;
1350;SDS011;669;50.206;9.998;2024-02-15T15:56:11;1.30;;;1.20;;
1350;SDS011;669;50.206;9.998;2024-02-15T15:58:40;3.20;;;1.70;;
1350;SDS011;669;50.206;9.998;2024-02-15T16:01:11;1.63;;;1.37;;